Terminal Aerodrome Forecast
Issued by NWS

Home | Current Version | Previous Version | Graphics & Text | Print | Product List | Glossary On
Versions: 1 2 3 4 5 6 7 8 9 10 11 12 13 14 15 16 17 18 19 20 21 22 23
000
FTUS43 KIWX 211121
TAFSBN
TAF
KSBN 211121Z 2112/2212 19005KT P6SM SCT025
     FM211500 21009KT P6SM SCT030 BKN200
     FM211700 22011KT P6SM VCTS SCT040CB BKN250
     FM220000 22009KT P6SM SCT200=

USA.gov is the U.S. government's official web portal to all federal, state and local government web resources and services.